sensor_id;sensor_type;location;lat;lon;timestamp;temperature;humidity
67364;HTU21D;54250;45.572;38.086;2023-08-01T00:01:32;21.83;82.20
67364;HTU21D;54250;45.572;38.086;2023-08-01T00:03:58;21.85;82.13
67364;HTU21D;54250;45.572;38.086;2023-08-01T00:06:24;21.87;82.11
67364;HTU21D;54250;45.572;38.086;2023-08-01T00:08:51;21.87;82.10
67364;HTU21D;54250;45.572;38.086;2023-08-01T00:11:17;21.83;82.23
67364;HTU21D;54250;45.572;38.086;2023-08-01T00:13:43;21.80;82.35
67364;HTU21D;54250;45.572;38.086;2023-08-01T00:16:09;21.74;82.47
67364;HTU21D;54250;45.572;38.086;2023-08-01T00:18:35;21.66;82.71
67364;HTU21D;54250;45.572;38.086;2023-08-01T00:21:02;21.61;82.94
67364;HTU21D;54250;45.572;38.086;2023-08-01T00:23:28;21.53;83.00
67364;HTU21D;54250;45.572;38.086;2023-08-01T00:25:54;21.50;83.04
67364;HTU21D;54250;45.572;38.086;2023-08-01T00:28:22;21.48;83.13
67364;HTU21D;54250;45.572;38.086;2023-08-01T00:30:48;21.45;83.15
67364;HTU21D;54250;45.572;38.086;2023-08-01T00:33:14;21.46;83.00
67364;HTU21D;54250;45.572;38.086;2023-08-01T00:35:40;21.45;82.95
67364;HTU21D;54250;45.572;38.086;2023-08-01T00:38:07;21.39;83.10
67364;HTU21D;54250;45.572;38.086;2023-08-01T00:40:33;21.35;83.24
67364;HTU21D;54250;45.572;38.086;2023-08-01T00:43:00;21.31;83.30
67364;HTU21D;54250;45.572;38.086;2023-08-01T00:45:26;21.25;83.35
67364;HTU21D;54250;45.572;38.086;2023-08-01T00:47:53;21.25;83.43
67364;HTU21D;54250;45.572;38.086;2023-08-01T00:50:20;21.22;83.40
67364;HTU21D;54250;45.572;38.086;2023-08-01T00:52:48;21.20;83.38
67364;HTU21D;54250;45.572;38.086;2023-08-01T00:55:15;21.20;83.29
67364;HTU21D;54250;45.572;38.086;2023-08-01T00:57:42;21.21;83.11
67364;HTU21D;54250;45.572;38.086;2023-08-01T01:00:09;21.23;82.80
67364;HTU21D;54250;45.572;38.086;2023-08-01T01:02:35;21.25;82.72
67364;HTU21D;54250;45.572;38.086;2023-08-01T01:05:02;21.25;82.42
67364;HTU21D;54250;45.572;38.086;2023-08-01T01:07:29;21.32;82.08
67364;HTU21D;54250;45.572;38.086;2023-08-01T01:09:57;21.31;81.85
67364;HTU21D;54250;45.572;38.086;2023-08-01T01:12:23;21.31;81.67
67364;HTU21D;54250;45.572;38.086;2023-08-01T01:14:49;21.32;81.42
67364;HTU21D;54250;45.572;38.086;2023-08-01T01:17:15;21.35;81.19
67364;HTU21D;54250;45.572;38.086;2023-08-01T01:19:41;21.37;81.04
67364;HTU21D;54250;45.572;38.086;2023-08-01T01:22:09;21.34;80.91
67364;HTU21D;54250;45.572;38.086;2023-08-01T01:24:36;21.33;80.82
67364;HTU21D;54250;45.572;38.086;2023-08-01T01:27:04;21.31;80.78
67364;HTU21D;54250;45.572;38.086;2023-08-01T01:29:32;21.23;80.87
67364;HTU21D;54250;45.572;38.086;2023-08-01T01:32:03;21.20;80.73
67364;HTU21D;54250;45.572;38.086;2023-08-01T01:34:29;21.25;80.44
67364;HTU21D;54250;45.572;38.086;2023-08-01T01:36:55;21.32;80.14
67364;HTU21D;54250;45.572;38.086;2023-08-01T01:39:21;21.27;80.15
67364;HTU21D;54250;45.572;38.086;2023-08-01T01:41:47;21.19;80.27
67364;HTU21D;54250;45.572;38.086;2023-08-01T01:44:13;21.13;80.33
67364;HTU21D;54250;45.572;38.086;2023-08-01T01:46:39;21.04;80.55
67364;HTU21D;54250;45.572;38.086;2023-08-01T01:49:05;20.94;80.74
67364;HTU21D;54250;45.572;38.086;2023-08-01T01:51:31;20.88;80.88
67364;HTU21D;54250;45.572;38.086;2023-08-01T01:53:57;20.84;80.81
67364;HTU21D;54250;45.572;38.086;2023-08-01T01:56:23;20.88;80.53
67364;HTU21D;54250;45.572;38.086;2023-08-01T01:58:50;20.89;80.34
67364;HTU21D;54250;45.572;38.086;2023-08-01T02:01:16;20.88;80.26
67364;HTU21D;54250;45.572;38.086;2023-08-01T02:03:42;20.89;80.17
67364;HTU21D;54250;45.572;38.086;2023-08-01T02:06:08;20.93;80.01
67364;HTU21D;54250;45.572;38.086;2023-08-01T02:08:34;20.86;80.13
67364;HTU21D;54250;45.572;38.086;2023-08-01T02:11:01;20.83;80.16
67364;HTU21D;54250;45.572;38.086;2023-08-01T02:13:28;20.83;80.08
67364;HTU21D;54250;45.572;38.086;2023-08-01T02:15:54;20.84;80.03
67364;HTU21D;54250;45.572;38.086;2023-08-01T02:18:21;20.78;80.05
67364;HTU21D;54250;45.572;38.086;2023-08-01T02:20:47;20.76;80.03
67364;HTU21D;54250;45.572;38.086;2023-08-01T02:23:12;20.73;79.98
67364;HTU21D;54250;45.572;38.086;2023-08-01T02:25:42;20.71;80.07
67364;HTU21D;54250;45.572;38.086;2023-08-01T02:28:08;20.62;80.17
67364;HTU21D;54250;45.572;38.086;2023-08-01T02:30:35;20.59;80.32
67364;HTU21D;54250;45.572;38.086;2023-08-01T02:33:02;20.54;80.40
67364;HTU21D;54250;45.572;38.086;2023-08-01T02:35:28;20.50;80.54
67364;HTU21D;54250;45.572;38.086;2023-08-01T02:37:55;20.49;80.56
67364;HTU21D;54250;45.572;38.086;2023-08-01T02:40:21;20.49;80.66
67364;HTU21D;54250;45.572;38.086;2023-08-01T02:42:48;20.51;80.72
67364;HTU21D;54250;45.572;38.086;2023-08-01T02:45:14;20.55;80.68
67364;HTU21D;54250;45.572;38.086;2023-08-01T02:47:40;20.60;80.71
67364;HTU21D;54250;45.572;38.086;2023-08-01T02:50:06;20.68;80.65
67364;HTU21D;54250;45.572;38.086;2023-08-01T02:52:32;20.78;80.38
67364;HTU21D;54250;45.572;38.086;2023-08-01T02:54:58;20.94;79.95
67364;HTU21D;54250;45.572;38.086;2023-08-01T02:57:24;21.29;79.14
67364;HTU21D;54250;45.572;38.086;2023-08-01T02:59:50;21.42;78.67
67364;HTU21D;54250;45.572;38.086;2023-08-01T03:02:16;21.36;78.87
67364;HTU21D;54250;45.572;38.086;2023-08-01T03:04:43;21.31;79.23
67364;HTU21D;54250;45.572;38.086;2023-08-01T03:07:08;21.30;79.40
67364;HTU21D;54250;45.572;38.086;2023-08-01T03:09:34;21.33;79.66
67364;HTU21D;54250;45.572;38.086;2023-08-01T03:12:00;21.42;79.75
67364;HTU21D;54250;45.572;38.086;2023-08-01T03:14:26;21.51;79.65
67364;HTU21D;54250;45.572;38.086;2023-08-01T03:16:52;21.62;79.57
67364;HTU21D;54250;45.572;38.086;2023-08-01T03:19:18;21.72;79.41
67364;HTU21D;54250;45.572;38.086;2023-08-01T03:21:44;21.92;79.11
67364;HTU21D;54250;45.572;38.086;2023-08-01T03:24:10;22.24;78.46
67364;HTU21D;54250;45.572;38.086;2023-08-01T03:26:36;22.87;77.52
67364;HTU21D;54250;45.572;38.086;2023-08-01T03:29:02;24.05;74.71
67364;HTU21D;54250;45.572;38.086;2023-08-01T03:31:29;24.44;73.79
67364;HTU21D;54250;45.572;38.086;2023-08-01T03:33:55;24.75;73.46
67364;HTU21D;54250;45.572;38.086;2023-08-01T03:36:24;24.79;73.33
67364;HTU21D;54250;45.572;38.086;2023-08-01T03:38:50;24.69;73.96
67364;HTU21D;54250;45.572;38.086;2023-08-01T03:41:16;24.64;74.28
67364;HTU21D;54250;45.572;38.086;2023-08-01T03:43:42;25.48;72.91
67364;HTU21D;54250;45.572;38.086;2023-08-01T03:46:09;27.42;68.31
67364;HTU21D;54250;45.572;38.086;2023-08-01T03:48:35;29.23;63.90
67364;HTU21D;54250;45.572;38.086;2023-08-01T03:51:01;30.63;60.64
67364;HTU21D;54250;45.572;38.086;2023-08-01T03:53:29;31.58;58.59
67364;HTU21D;54250;45.572;38.086;2023-08-01T03:55:55;32.44;56.48
67364;HTU21D;54250;45.572;38.086;2023-08-01T03:58:21;33.03;55.81
67364;HTU21D;54250;45.572;38.086;2023-08-01T04:00:47;33.96;53.52
67364;HTU21D;54250;45.572;38.086;2023-08-01T04:03:13;34.36;52.49
67364;HTU21D;54250;45.572;38.086;2023-08-01T04:05:39;33.28;53.78
67364;HTU21D;54250;45.572;38.086;2023-08-01T04:08:06;32.42;54.83
67364;HTU21D;54250;45.572;38.086;2023-08-01T04:10:32;32.66;54.24
67364;HTU21D;54250;45.572;38.086;2023-08-01T04:12:58;33.42;51.97
67364;HTU21D;54250;45.572;38.086;2023-08-01T04:15:24;32.41;53.00
67364;HTU21D;54250;45.572;38.086;2023-08-01T04:17:50;31.26;54.62
67364;HTU21D;54250;45.572;38.086;2023-08-01T04:20:16;30.18;56.57
67364;HTU21D;54250;45.572;38.086;2023-08-01T04:22:42;30.81;55.25
67364;HTU21D;54250;45.572;38.086;2023-08-01T04:25:08;32.02;53.39
67364;HTU21D;54250;45.572;38.086;2023-08-01T04:27:34;32.73;51.01
67364;HTU21D;54250;45.572;38.086;2023-08-01T04:30:00;32.41;51.78
67364;HTU21D;54250;45.572;38.086;2023-08-01T04:32:26;33.12;50.20
67364;HTU21D;54250;45.572;38.086;2023-08-01T04:34:52;33.70;48.84
67364;HTU21D;54250;45.572;38.086;2023-08-01T04:37:18;34.08;48.18
67364;HTU21D;54250;45.572;38.086;2023-08-01T04:39:48;35.48;46.58
67364;HTU21D;54250;45.572;38.086;2023-08-01T04:42:13;37.18;43.74
67364;HTU21D;54250;45.572;38.086;2023-08-01T04:44:39;37.54;42.61
67364;HTU21D;54250;45.572;38.086;2023-08-01T04:47:05;37.48;42.57
67364;HTU21D;54250;45.572;38.086;2023-08-01T04:49:31;38.74;40.46
67364;HTU21D;54250;45.572;38.086;2023-08-01T04:51:58;39.78;38.26
67364;HTU21D;54250;45.572;38.086;2023-08-01T04:54:24;39.17;38.64
67364;HTU21D;54250;45.572;38.086;2023-08-01T04:56:50;37.29;41.88
67364;HTU21D;54250;45.572;38.086;2023-08-01T04:59:16;36.12;43.81
67364;HTU21D;54250;45.572;38.086;2023-08-01T05:01:41;36.23;43.02
67364;HTU21D;54250;45.572;38.086;2023-08-01T05:04:07;36.58;42.29
67364;HTU21D;54250;45.572;38.086;2023-08-01T05:06:33;35.98;42.92
67364;HTU21D;54250;45.572;38.086;2023-08-01T05:09:00;35.27;43.62
67364;HTU21D;54250;45.572;38.086;2023-08-01T05:11:26;34.98;44.05
67364;HTU21D;54250;45.572;38.086;2023-08-01T05:13:52;34.11;45.65
67364;HTU21D;54250;45.572;38.086;2023-08-01T05:16:18;33.21;46.92
67364;HTU21D;54250;45.572;38.086;2023-08-01T05:18:44;32.55;48.13
67364;HTU21D;54250;45.572;38.086;2023-08-01T05:21:10;32.50;48.44
67364;HTU21D;54250;45.572;38.086;2023-08-01T05:23:36;31.94;48.92
67364;HTU21D;54250;45.572;38.086;2023-08-01T05:26:02;31.41;49.69
67364;HTU21D;54250;45.572;38.086;2023-08-01T05:28:28;31.25;50.07
67364;HTU21D;54250;45.572;38.086;2023-08-01T05:30:54;32.88;47.47
67364;HTU21D;54250;45.572;38.086;2023-08-01T05:33:20;34.29;45.68
67364;HTU21D;54250;45.572;38.086;2023-08-01T05:35:46;36.72;41.35
67364;HTU21D;54250;45.572;38.086;2023-08-01T05:38:12;37.60;40.26
67364;HTU21D;54250;45.572;38.086;2023-08-01T05:40:37;38.80;38.53
67364;HTU21D;54250;45.572;38.086;2023-08-01T05:43:05;39.95;36.79
67364;HTU21D;54250;45.572;38.086;2023-08-01T05:45:37;38.70;38.88
67364;HTU21D;54250;45.572;38.086;2023-08-01T05:48:03;37.34;40.89
67364;HTU21D;54250;45.572;38.086;2023-08-01T05:50:29;36.17;42.43
67364;HTU21D;54250;45.572;38.086;2023-08-01T05:52:55;36.16;43.42
67364;HTU21D;54250;45.572;38.086;2023-08-01T05:55:21;36.54;42.16
67364;HTU21D;54250;45.572;38.086;2023-08-01T05:57:47;35.93;42.64
67364;HTU21D;54250;45.572;38.086;2023-08-01T06:00:15;36.63;42.28
67364;HTU21D;54250;45.572;38.086;2023-08-01T06:02:41;39.40;37.86
67364;HTU21D;54250;45.572;38.086;2023-08-01T06:05:07;40.96;35.29
67364;HTU21D;54250;45.572;38.086;2023-08-01T06:07:33;41.01;35.83
67364;HTU21D;54250;45.572;38.086;2023-08-01T06:09:58;42.99;33.68
67364;HTU21D;54250;45.572;38.086;2023-08-01T06:12:24;44.26;32.55
67364;HTU21D;54250;45.572;38.086;2023-08-01T06:14:50;45.10;31.66
67364;HTU21D;54250;45.572;38.086;2023-08-01T06:17:16;46.09;30.16
67364;HTU21D;54250;45.572;38.086;2023-08-01T06:19:42;46.48;29.35
67364;HTU21D;54250;45.572;38.086;2023-08-01T06:22:08;47.46;28.18
67364;HTU21D;54250;45.572;38.086;2023-08-01T06:24:34;48.77;26.91
67364;HTU21D;54250;45.572;38.086;2023-08-01T06:27:00;48.70;26.71
67364;HTU21D;54250;45.572;38.086;2023-08-01T06:29:26;48.96;26.88
67364;HTU21D;54250;45.572;38.086;2023-08-01T06:31:52;49.49;25.76
67364;HTU21D;54250;45.572;38.086;2023-08-01T06:34:18;49.78;24.96
67364;HTU21D;54250;45.572;38.086;2023-08-01T06:36:44;49.79;24.39
67364;HTU21D;54250;45.572;38.086;2023-08-01T06:39:10;50.15;23.88
67364;HTU21D;54250;45.572;38.086;2023-08-01T06:41:36;50.49;23.23
67364;HTU21D;54250;45.572;38.086;2023-08-01T06:44:02;50.58;23.15
67364;HTU21D;54250;45.572;38.086;2023-08-01T06:46:28;49.26;24.77
67364;HTU21D;54250;45.572;38.086;2023-08-01T06:48:54;47.86;25.70
67364;HTU21D;54250;45.572;38.086;2023-08-01T06:51:20;46.66;27.07
67364;HTU21D;54250;45.572;38.086;2023-08-01T06:53:46;46.25;27.65
67364;HTU21D;54250;45.572;38.086;2023-08-01T06:56:12;45.09;27.91
67364;HTU21D;54250;45.572;38.086;2023-08-01T06:58:38;45.07;28.03
67364;HTU21D;54250;45.572;38.086;2023-08-01T07:01:04;46.76;27.07
67364;HTU21D;54250;45.572;38.086;2023-08-01T07:03:30;48.52;24.99
67364;HTU21D;54250;45.572;38.086;2023-08-01T07:05:56;50.09;23.24
67364;HTU21D;54250;45.572;38.086;2023-08-01T07:08:22;49.61;23.83
67364;HTU21D;54250;45.572;38.086;2023-08-01T07:10:48;49.21;24.06
67364;HTU21D;54250;45.572;38.086;2023-08-01T07:13:14;48.59;24.93
67364;HTU21D;54250;45.572;38.086;2023-08-01T07:15:41;46.76;27.20
67364;HTU21D;54250;45.572;38.086;2023-08-01T07:18:07;46.68;27.23
67364;HTU21D;54250;45.572;38.086;2023-08-01T07:20:33;45.65;27.42
67364;HTU21D;54250;45.572;38.086;2023-08-01T07:22:59;43.88;29.51
67364;HTU21D;54250;45.572;38.086;2023-08-01T07:25:25;42.47;30.53
67364;HTU21D;54250;45.572;38.086;2023-08-01T07:27:51;41.79;31.15
67364;HTU21D;54250;45.572;38.086;2023-08-01T07:30:17;41.54;32.04
67364;HTU21D;54250;45.572;38.086;2023-08-01T07:32:43;42.94;30.22
67364;HTU21D;54250;45.572;38.086;2023-08-01T07:35:09;44.30;28.74
67364;HTU21D;54250;45.572;38.086;2023-08-01T07:37:35;43.53;30.21
67364;HTU21D;54250;45.572;38.086;2023-08-01T07:40:07;43.92;30.31
67364;HTU21D;54250;45.572;38.086;2023-08-01T07:42:33;45.26;29.52
67364;HTU21D;54250;45.572;38.086;2023-08-01T07:44:59;46.81;27.52
67364;HTU21D;54250;45.572;38.086;2023-08-01T07:47:25;47.41;26.01
67364;HTU21D;54250;45.572;38.086;2023-08-01T07:49:52;47.48;26.30
67364;HTU21D;54250;45.572;38.086;2023-08-01T07:52:18;46.73;26.88
67364;HTU21D;54250;45.572;38.086;2023-08-01T07:54:44;46.76;26.90
67364;HTU21D;54250;45.572;38.086;2023-08-01T07:57:10;47.10;25.94
67364;HTU21D;54250;45.572;38.086;2023-08-01T07:59:36;47.88;25.39
67364;HTU21D;54250;45.572;38.086;2023-08-01T08:02:02;49.19;24.04
67364;HTU21D;54250;45.572;38.086;2023-08-01T08:15:27;50.52;22.17
67364;HTU21D;54250;45.572;38.086;2023-08-01T08:17:56;51.27;21.93
67364;HTU21D;54250;45.572;38.086;2023-08-01T08:20:22;51.77;21.61
67364;HTU21D;54250;45.572;38.086;2023-08-01T08:22:48;52.09;21.73
67364;HTU21D;54250;45.572;38.086;2023-08-01T08:25:14;52.36;21.28
67364;HTU21D;54250;45.572;38.086;2023-08-01T08:27:40;52.41;20.74
67364;HTU21D;54250;45.572;38.086;2023-08-01T08:30:06;51.72;21.80
67364;HTU21D;54250;45.572;38.086;2023-08-01T08:32:32;50.66;22.06
67364;HTU21D;54250;45.572;38.086;2023-08-01T08:34:58;48.16;24.14
67364;HTU21D;54250;45.572;38.086;2023-08-01T08:37:24;46.84;25.13
67364;HTU21D;54250;45.572;38.086;2023-08-01T08:39:50;46.29;26.72
67364;HTU21D;54250;45.572;38.086;2023-08-01T08:42:18;47.71;24.47
67364;HTU21D;54250;45.572;38.086;2023-08-01T08:44:48;45.05;26.89
67364;HTU21D;54250;45.572;38.086;2023-08-01T08:47:17;43.33;29.42
67364;HTU21D;54250;45.572;38.086;2023-08-01T08:49:45;42.32;31.22
67364;HTU21D;54250;45.572;38.086;2023-08-01T08:52:11;41.22;32.15
67364;HTU21D;54250;45.572;38.086;2023-08-01T08:54:38;40.58;33.38
67364;HTU21D;54250;45.572;38.086;2023-08-01T08:57:06;40.76;33.25
67364;HTU21D;54250;45.572;38.086;2023-08-01T08:59:35;42.76;30.98
67364;HTU21D;54250;45.572;38.086;2023-08-01T09:02:06;44.46;29.35
67364;HTU21D;54250;45.572;38.086;2023-08-01T09:04:32;44.32;30.11
67364;HTU21D;54250;45.572;38.086;2023-08-01T09:07:02;44.91;29.37
67364;HTU21D;54250;45.572;38.086;2023-08-01T09:09:29;44.37;30.13
67364;HTU21D;54250;45.572;38.086;2023-08-01T09:11:54;45.79;28.84
67364;HTU21D;54250;45.572;38.086;2023-08-01T09:14:22;46.86;27.66
67364;HTU21D;54250;45.572;38.086;2023-08-01T09:16:48;47.78;26.36
67364;HTU21D;54250;45.572;38.086;2023-08-01T09:19:23;47.91;25.77
67364;HTU21D;54250;45.572;38.086;2023-08-01T09:21:49;48.05;26.07
67364;HTU21D;54250;45.572;38.086;2023-08-01T09:24:20;48.45;26.02
67364;HTU21D;54250;45.572;38.086;2023-08-01T09:26:48;48.64;25.59
67364;HTU21D;54250;45.572;38.086;2023-08-01T09:29:16;48.45;25.01
67364;HTU21D;54250;45.572;38.086;2023-08-01T09:31:43;47.49;26.02
67364;HTU21D;54250;45.572;38.086;2023-08-01T09:34:22;46.48;28.04
67364;HTU21D;54250;45.572;38.086;2023-08-01T09:36:49;45.41;29.03
67364;HTU21D;54250;45.572;38.086;2023-08-01T09:39:17;43.91;29.90
67364;HTU21D;54250;45.572;38.086;2023-08-01T09:41:43;42.59;31.64
67364;HTU21D;54250;45.572;38.086;2023-08-01T09:44:15;41.78;32.80
67364;HTU21D;54250;45.572;38.086;2023-08-01T09:46:41;41.37;33.09
67364;HTU21D;54250;45.572;38.086;2023-08-01T09:49:12;40.69;33.77
67364;HTU21D;54250;45.572;38.086;2023-08-01T09:51:47;40.28;34.71
67364;HTU21D;54250;45.572;38.086;2023-08-01T09:54:15;39.95;35.88
67364;HTU21D;54250;45.572;38.086;2023-08-01T09:56:47;39.58;36.07
67364;HTU21D;54250;45.572;38.086;2023-08-01T09:59:20;38.82;37.34
67364;HTU21D;54250;45.572;38.086;2023-08-01T10:01:48;38.28;38.00
67364;HTU21D;54250;45.572;38.086;2023-08-01T10:04:19;37.81;39.36
67364;HTU21D;54250;45.572;38.086;2023-08-01T10:06:48;37.76;38.51
67364;HTU21D;54250;45.572;38.086;2023-08-01T10:09:18;37.38;38.70
67364;HTU21D;54250;45.572;38.086;2023-08-01T10:11:45;37.08;39.84
67364;HTU21D;54250;45.572;38.086;2023-08-01T10:14:11;37.13;39.85
67364;HTU21D;54250;45.572;38.086;2023-08-01T10:16:37;36.83;41.20
67364;HTU21D;54250;45.572;38.086;2023-08-01T10:19:06;36.68;40.39
67364;HTU21D;54250;45.572;38.086;2023-08-01T10:21:33;36.62;42.03
67364;HTU21D;54250;45.572;38.086;2023-08-01T10:24:00;36.80;42.53
67364;HTU21D;54250;45.572;38.086;2023-08-01T10:26:28;36.97;42.20
67364;HTU21D;54250;45.572;38.086;2023-08-01T10:28:54;37.23;42.14
67364;HTU21D;54250;45.572;38.086;2023-08-01T10:31:20;37.30;41.77
67364;HTU21D;54250;45.572;38.086;2023-08-01T10:33:48;37.06;41.99
67364;HTU21D;54250;45.572;38.086;2023-08-01T10:36:22;36.87;42.68
67364;HTU21D;54250;45.572;38.086;2023-08-01T10:38:55;36.92;42.32
67364;HTU21D;54250;45.572;38.086;2023-08-01T10:41:28;36.98;42.69
67364;HTU21D;54250;45.572;38.086;2023-08-01T10:44:11;37.37;42.87
67364;HTU21D;54250;45.572;38.086;2023-08-01T10:46:48;37.89;41.16
67364;HTU21D;54250;45.572;38.086;2023-08-01T10:49:15;38.10;41.51
67364;HTU21D;54250;45.572;38.086;2023-08-01T10:51:42;38.07;40.57
67364;HTU21D;54250;45.572;38.086;2023-08-01T10:54:24;37.81;41.15
67364;HTU21D;54250;45.572;38.086;2023-08-01T10:56:52;37.59;41.87
67364;HTU21D;54250;45.572;38.086;2023-08-01T10:59:19;37.47;42.27
67364;HTU21D;54250;45.572;38.086;2023-08-01T11:01:49;37.58;42.82
67364;HTU21D;54250;45.572;38.086;2023-08-01T11:04:19;37.47;43.55
67364;HTU21D;54250;45.572;38.086;2023-08-01T11:06:47;37.40;43.80
67364;HTU21D;54250;45.572;38.086;2023-08-01T11:09:21;37.34;44.03
67364;HTU21D;54250;45.572;38.086;2023-08-01T11:11:55;37.31;44.45
67364;HTU21D;54250;45.572;38.086;2023-08-01T11:14:23;37.27;44.94
67364;HTU21D;54250;45.572;38.086;2023-08-01T11:16:50;37.27;45.06
67364;HTU21D;54250;45.572;38.086;2023-08-01T11:21:46;36.87;45.35
67364;HTU21D;54250;45.572;38.086;2023-08-01T11:24:13;36.44;46.42
67364;HTU21D;54250;45.572;38.086;2023-08-01T11:26:43;36.28;46.73
67364;HTU21D;54250;45.572;38.086;2023-08-01T11:29:13;36.28;47.09
67364;HTU21D;54250;45.572;38.086;2023-08-01T11:31:40;36.41;47.44
67364;HTU21D;54250;45.572;38.086;2023-08-01T11:34:09;36.51;46.46
67364;HTU21D;54250;45.572;38.086;2023-08-01T11:36:37;36.41;46.67
67364;HTU21D;54250;45.572;38.086;2023-08-01T11:39:04;36.40;46.79
67364;HTU21D;54250;45.572;38.086;2023-08-01T11:41:30;36.31;47.00
67364;HTU21D;54250;45.572;38.086;2023-08-01T11:44:01;36.28;47.03
67364;HTU21D;54250;45.572;38.086;2023-08-01T11:46:33;36.26;47.29
67364;HTU21D;54250;45.572;38.086;2023-08-01T11:48:59;36.24;47.21
67364;HTU21D;54250;45.572;38.086;2023-08-01T11:51:29;36.21;47.30
67364;HTU21D;54250;45.572;38.086;2023-08-01T11:54:04;36.19;47.41
67364;HTU21D;54250;45.572;38.086;2023-08-01T11:56:31;35.98;47.73
67364;HTU21D;54250;45.572;38.086;2023-08-01T11:58:57;35.73;48.49
67364;HTU21D;54250;45.572;38.086;2023-08-01T12:01:24;35.85;48.63
67364;HTU21D;54250;45.572;38.086;2023-08-01T12:03:54;36.22;47.99
67364;HTU21D;54250;45.572;38.086;2023-08-01T12:06:22;36.44;47.56
67364;HTU21D;54250;45.572;38.086;2023-08-01T12:08:50;36.30;47.63
67364;HTU21D;54250;45.572;38.086;2023-08-01T12:11:21;36.22;47.42
67364;HTU21D;54250;45.572;38.086;2023-08-01T12:13:48;36.09;47.64
67364;HTU21D;54250;45.572;38.086;2023-08-01T12:16:25;36.12;48.32
67364;HTU21D;54250;45.572;38.086;2023-08-01T12:18:51;36.25;48.12
67364;HTU21D;54250;45.572;38.086;2023-08-01T12:21:16;36.43;47.67
67364;HTU21D;54250;45.572;38.086;2023-08-01T12:23:42;36.60;47.31
67364;HTU21D;54250;45.572;38.086;2023-08-01T12:26:08;36.81;47.25
67364;HTU21D;54250;45.572;38.086;2023-08-01T12:28:35;36.97;46.79
67364;HTU21D;54250;45.572;38.086;2023-08-01T12:31:01;37.04;46.60
67364;HTU21D;54250;45.572;38.086;2023-08-01T12:33:27;37.01;46.64
67364;HTU21D;54250;45.572;38.086;2023-08-01T12:35:53;36.91;46.96
67364;HTU21D;54250;45.572;38.086;2023-08-01T12:38:19;36.68;47.29
67364;HTU21D;54250;45.572;38.086;2023-08-01T12:40:45;36.55;47.54
67364;HTU21D;54250;45.572;38.086;2023-08-01T12:43:12;36.57;47.31
67364;HTU21D;54250;45.572;38.086;2023-08-01T12:45:38;36.47;47.84
67364;HTU21D;54250;45.572;38.086;2023-08-01T12:48:04;36.33;48.16
67364;HTU21D;54250;45.572;38.086;2023-08-01T12:50:30;36.17;48.42
67364;HTU21D;54250;45.572;38.086;2023-08-01T12:52:56;36.12;48.48
67364;HTU21D;54250;45.572;38.086;2023-08-01T12:55:22;36.14;48.43
67364;HTU21D;54250;45.572;38.086;2023-08-01T12:57:48;36.18;48.41
67364;HTU21D;54250;45.572;38.086;2023-08-01T13:00:14;36.09;48.25
67364;HTU21D;54250;45.572;38.086;2023-08-01T13:02:40;35.87;48.57
67364;HTU21D;54250;45.572;38.086;2023-08-01T13:05:06;35.72;48.86
67364;HTU21D;54250;45.572;38.086;2023-08-01T13:07:32;35.50;48.99
67364;HTU21D;54250;45.572;38.086;2023-08-01T13:09:58;35.26;49.20
67364;HTU21D;54250;45.572;38.086;2023-08-01T13:12:25;35.07;49.73
67364;HTU21D;54250;45.572;38.086;2023-08-01T13:14:51;34.85;49.92
67364;HTU21D;54250;45.572;38.086;2023-08-01T13:17:17;34.59;50.17
67364;HTU21D;54250;45.572;38.086;2023-08-01T13:19:42;34.33;50.49
67364;HTU21D;54250;45.572;38.086;2023-08-01T13:22:08;34.04;50.88
67364;HTU21D;54250;45.572;38.086;2023-08-01T13:24:34;33.81;51.24
67364;HTU21D;54250;45.572;38.086;2023-08-01T13:27:01;33.63;51.46
67364;HTU21D;54250;45.572;38.086;2023-08-01T13:29:27;33.44;51.83
67364;HTU21D;54250;45.572;38.086;2023-08-01T13:31:54;33.31;51.87
67364;HTU21D;54250;45.572;38.086;2023-08-01T13:34:20;33.18;51.94
67364;HTU21D;54250;45.572;38.086;2023-08-01T13:36:46;33.05;52.08
67364;HTU21D;54250;45.572;38.086;2023-08-01T13:39:12;32.97;52.23
67364;HTU21D;54250;45.572;38.086;2023-08-01T13:41:38;32.84;52.30
67364;HTU21D;54250;45.572;38.086;2023-08-01T13:44:04;32.74;52.58
67364;HTU21D;54250;45.572;38.086;2023-08-01T13:46:30;32.63;52.97
67364;HTU21D;54250;45.572;38.086;2023-08-01T13:48:56;32.49;53.31
67364;HTU21D;54250;45.572;38.086;2023-08-01T13:51:22;32.38;53.56
67364;HTU21D;54250;45.572;38.086;2023-08-01T13:53:48;32.25;53.71
67364;HTU21D;54250;45.572;38.086;2023-08-01T13:56:14;32.12;53.96
67364;HTU21D;54250;45.572;38.086;2023-08-01T13:58:40;31.99;54.07
67364;HTU21D;54250;45.572;38.086;2023-08-01T14:01:08;31.89;54.39
67364;HTU21D;54250;45.572;38.086;2023-08-01T14:03:35;31.81;54.77
67364;HTU21D;54250;45.572;38.086;2023-08-01T14:06:08;31.70;54.90
67364;HTU21D;54250;45.572;38.086;2023-08-01T14:08:35;31.61;55.17
67364;HTU21D;54250;45.572;38.086;2023-08-01T14:11:05;31.51;55.47
67364;HTU21D;54250;45.572;38.086;2023-08-01T14:13:31;31.41;55.48
67364;HTU21D;54250;45.572;38.086;2023-08-01T14:16:00;31.33;55.86
67364;HTU21D;54250;45.572;38.086;2023-08-01T14:18:30;31.25;56.09
67364;HTU21D;54250;45.572;38.086;2023-08-01T14:20:59;31.18;56.26
67364;HTU21D;54250;45.572;38.086;2023-08-01T14:23:25;31.08;56.60
67364;HTU21D;54250;45.572;38.086;2023-08-01T14:25:51;30.98;56.93
67364;HTU21D;54250;45.572;38.086;2023-08-01T14:28:17;30.91;57.38
67364;HTU21D;54250;45.572;38.086;2023-08-01T14:30:42;30.83;57.35
67364;HTU21D;54250;45.572;38.086;2023-08-01T14:33:09;30.74;57.66
67364;HTU21D;54250;45.572;38.086;2023-08-01T14:35:35;30.63;57.77
67364;HTU21D;54250;45.572;38.086;2023-08-01T14:38:02;30.49;57.93
67364;HTU21D;54250;45.572;38.086;2023-08-01T14:40:29;30.39;58.21
67364;HTU21D;54250;45.572;38.086;2023-08-01T14:42:56;30.28;58.47
67364;HTU21D;54250;45.572;38.086;2023-08-01T14:45:22;30.20;58.71
67364;HTU21D;54250;45.572;38.086;2023-08-01T14:47:48;30.11;59.16
67364;HTU21D;54250;45.572;38.086;2023-08-01T14:50:15;30.08;59.65
67364;HTU21D;54250;45.572;38.086;2023-08-01T14:52:41;30.00;59.68
67364;HTU21D;54250;45.572;38.086;2023-08-01T14:55:08;29.88;59.95
67364;HTU21D;54250;45.572;38.086;2023-08-01T14:57:34;29.78;60.25
67364;HTU21D;54250;45.572;38.086;2023-08-01T15:00:01;29.68;60.64
67364;HTU21D;54250;45.572;38.086;2023-08-01T15:02:27;29.60;60.96
67364;HTU21D;54250;45.572;38.086;2023-08-01T15:04:54;29.51;61.67
67364;HTU21D;54250;45.572;38.086;2023-08-01T15:07:24;29.46;61.87
67364;HTU21D;54250;45.572;38.086;2023-08-01T15:09:51;29.41;62.12
67364;HTU21D;54250;45.572;38.086;2023-08-01T15:12:18;29.33;62.52
67364;HTU21D;54250;45.572;38.086;2023-08-01T15:14:55;29.26;62.87